createdAt,value
2023-01-07T00:03:16.072Z,72.06
2023-01-07T00:16:21.762Z,72.20
2023-01-07T00:29:44.306Z,72.49
2023-01-07T00:44:02.327Z,71.92
2023-01-07T00:51:32.758Z,72.12
2023-01-07T01:39:27.679Z,71.69
2023-01-07T01:53:49.991Z,71.87
2023-01-07T02:10:15.969Z,70.93
2023-01-07T02:15:19.014Z,70.78
2023-01-07T02:21:40.153Z,70.85
2023-01-07T02:34:59.725Z,70.66
2023-01-07T03:10:49.217Z,70.61
2023-01-07T03:17:10.448Z,70.62
2023-01-07T03:23:10.485Z,70.33
2023-01-07T03:36:24.791Z,69.93
2023-01-07T03:55:10.583Z,69.92
2023-01-07T04:01:28.726Z,69.91
2023-01-07T04:07:36.386Z,69.82
2023-01-07T04:14:05.279Z,69.91
2023-01-07T04:20:22.453Z,69.93
2023-01-07T04:26:44.468Z,70.19
2023-01-07T04:35:06.434Z,69.74
2023-01-07T04:40:31.250Z,70.14
2023-01-07T04:57:42.239Z,70.00
2023-01-07T05:11:21.556Z,69.64
2023-01-07T05:18:19.082Z,69.81
2023-01-07T05:25:40.813Z,70.25
2023-01-07T05:45:16.280Z,70.22
2023-01-07T05:52:09.772Z,70.15
2023-01-07T06:06:28.211Z,68.77
2023-01-07T06:20:08.215Z,69.68
2023-01-07T06:26:41.302Z,69.67
2023-01-07T06:32:50.387Z,69.79
2023-01-07T06:39:36.613Z,70.44
2023-01-07T06:45:27.068Z,70.66
2023-01-07T06:51:37.614Z,70.94
2023-01-07T07:04:56.502Z,71.74
2023-01-07T07:17:15.755Z,71.98
2023-01-07T07:34:09.750Z,70.75
2023-01-07T07:40:05.603Z,71.11
2023-01-07T07:46:56.418Z,71.26
2023-01-07T09:05:54.599Z,71.10
2023-01-07T09:11:43.430Z,70.87
2023-01-07T10:17:49.989Z,69.34
2023-01-07T10:23:55.428Z,69.39
2023-01-07T10:37:28.131Z,68.80
2023-01-07T10:44:21.050Z,69.34
2023-01-07T10:56:43.969Z,67.64
2023-01-07T11:01:59.396Z,66.79
2023-01-07T11:14:54.042Z,65.35
2023-01-07T11:27:35.575Z,64.00
2023-01-07T11:40:31.613Z,62.93
2023-01-07T11:46:57.411Z,62.92
2023-01-07T11:52:20.648Z,62.74
2023-01-07T12:04:33.789Z,62.10
2023-01-07T12:10:19.742Z,61.68
2023-01-07T12:16:20.472Z,60.77
2023-01-07T12:22:26.787Z,61.14
2023-01-07T12:28:37.191Z,61.13
2023-01-07T12:34:17.557Z,60.41
2023-01-07T12:40:23.767Z,60.21
2023-01-07T12:46:11.224Z,59.98
2023-01-07T12:54:00.512Z,57.75
2023-01-07T12:59:45.941Z,56.49
2023-01-07T13:06:06.705Z,56.03
2023-01-07T13:12:08.357Z,55.15
2023-01-07T13:18:23.478Z,54.87
2023-01-07T13:24:55.584Z,55.21
2023-01-07T13:30:57.259Z,55.81
2023-01-07T13:37:03.722Z,55.55
2023-01-07T13:42:38.107Z,56.17
2023-01-07T13:49:18.380Z,57.69
2023-01-07T14:00:54.445Z,58.88
2023-01-07T14:06:40.141Z,59.50
2023-01-07T14:12:26.912Z,59.47
2023-01-07T14:18:55.222Z,60.12
2023-01-07T14:24:36.043Z,60.47
2023-01-07T14:30:30.352Z,60.27
2023-01-07T14:36:21.480Z,60.95
2023-01-07T14:43:00.738Z,61.65
2023-01-07T14:48:36.463Z,61.52
2023-01-07T14:54:34.242Z,61.74
2023-01-07T15:00:52.350Z,62.19
2023-01-07T15:09:52.737Z,62.46
2023-01-07T15:55:34.584Z,64.13
2023-01-07T16:01:23.823Z,64.77
2023-01-07T16:07:20.500Z,66.12
2023-01-07T16:13:45.598Z,65.27
2023-01-07T16:19:44.575Z,65.41
2023-01-07T16:26:08.975Z,66.52
2023-01-07T16:32:10.125Z,66.59
2023-01-07T16:38:25.201Z,67.09
2023-01-07T16:44:43.521Z,67.18
2023-01-07T16:50:53.446Z,67.31
2023-01-07T18:02:52.731Z,68.10
2023-01-07T18:08:34.364Z,68.03
2023-01-07T18:22:02.226Z,67.90
2023-01-07T18:28:27.463Z,67.94
2023-01-07T18:35:20.121Z,67.98
2023-01-07T19:08:13.605Z,69.05
2023-01-07T19:14:29.008Z,67.72
2023-01-07T19:20:15.131Z,67.59
2023-01-07T19:25:59.641Z,67.92
2023-01-07T19:32:23.920Z,68.04
2023-01-07T19:38:08.090Z,67.80
2023-01-07T19:56:03.311Z,67.80
2023-01-07T20:01:33.257Z,67.62
2023-01-07T20:08:28.185Z,67.56
2023-01-07T20:21:27.859Z,67.83
2023-01-07T20:26:49.677Z,67.91
2023-01-07T20:32:42.020Z,69.21
2023-01-07T20:38:12.896Z,71.15
2023-01-07T20:44:34.226Z,68.29
2023-01-07T20:50:59.526Z,67.97
2023-01-07T20:56:26.449Z,67.31
2023-01-07T21:02:43.899Z,67.40
2023-01-07T21:09:00.864Z,67.43
2023-01-07T21:15:16.638Z,67.55
2023-01-07T21:21:23.202Z,67.67
2023-01-07T21:28:04.774Z,67.79
2023-01-07T21:35:08.296Z,67.52
2023-01-07T21:47:50.605Z,67.98
2023-01-07T22:01:40.346Z,67.64
2023-01-07T22:49:15.672Z,68.12
2023-01-07T22:55:47.849Z,68.20
2023-01-07T23:01:43.416Z,68.45
2023-01-07T23:08:00.490Z,68.47
2023-01-07T23:14:48.198Z,68.67
2023-01-07T23:21:11.835Z,68.82
2023-01-07T23:28:34.071Z,68.99
2023-01-07T23:34:32.756Z,69.37
2023-01-07T23:50:40.635Z,69.40
2023-01-07T23:55:24.444Z,69.64
